Time;durP1;ratioP1;P1;durP2;ratioP2;P2;SDS_P1;SDS_P2;PMS_P1;PMS_P2;Temp;Humidity;BMP_temperature;BMP_pressure;BME280_temperature;BME280_humidity;BME280_pressure;Samples;Min_cycle;Max_cycle;Signal;HPM_P1;HPM_P2
2022/02/24 00:01:42;;;;;;;1.43;1.33;;;5.70;99.90;;;;;;4973505;28;20408;-72
2022/02/24 00:04:08;;;;;;;2.67;2.47;;;5.90;99.90;;;;;;4943886;28;20578;-70
2022/02/24 00:06:33;;;;;;;3.20;1.50;;;6.00;99.90;;;;;;4908979;28;20336;-71
2022/02/24 00:08:59;;;;;;;2.43;1.50;;;6.10;99.90;;;;;;4909215;28;20544;-70
2022/02/24 00:11:25;;;;;;;3.63;2.33;;;6.20;99.90;;;;;;4909023;28;20281;-71
2022/02/24 00:13:50;;;;;;;2.97;1.80;;;6.30;99.90;;;;;;4907145;28;20654;-71
2022/02/24 00:16:16;;;;;;;2.20;1.63;;;6.40;99.90;;;;;;4907960;28;20510;-71
2022/02/24 00:18:42;;;;;;;1.90;1.53;;;6.60;99.90;;;;;;4909542;28;20592;-71
2022/02/24 00:21:07;;;;;;;3.00;1.53;;;6.60;99.90;;;;;;4908852;28;20386;-71
2022/02/24 00:23:33;;;;;;;1.63;1.17;;;6.70;99.90;;;;;;4909349;28;20486;-71
2022/02/24 00:25:59;;;;;;;4.03;1.50;;;6.70;99.90;;;;;;4906764;28;20526;-71
2022/02/24 00:28:24;;;;;;;2.50;1.77;;;6.70;99.90;;;;;;4910143;28;20427;-71
2022/02/24 00:30:50;;;;;;;2.00;1.90;;;6.80;99.90;;;;;;4910069;28;20606;-70
2022/02/24 00:33:16;;;;;;;2.20;1.87;;;6.90;99.90;;;;;;4916430;28;20546;-70
2022/02/24 00:35:41;;;;;;;3.20;1.93;;;6.90;99.90;;;;;;4910480;28;20219;-70
2022/02/24 00:38:07;;;;;;;2.77;1.67;;;6.90;99.90;;;;;;4907490;28;20411;-70
2022/02/24 00:40:33;;;;;;;3.13;1.70;;;6.90;99.90;;;;;;4906811;28;20605;-70
2022/02/24 00:42:58;;;;;;;1.30;1.20;;;7.00;99.90;;;;;;4905351;28;20564;-70
2022/02/24 00:45:24;;;;;;;5.33;1.63;;;7.00;99.90;;;;;;4905736;28;20491;-71
2022/02/24 00:47:50;;;;;;;3.70;1.30;;;7.00;99.90;;;;;;4909108;28;20525;-71
2022/02/24 00:50:16;;;;;;;1.57;1.30;;;7.10;99.90;;;;;;4906500;28;20636;-70
2022/02/24 00:52:41;;;;;;;7.00;2.00;;;7.20;99.90;;;;;;4904600;28;20752;-70
2022/02/24 00:55:07;;;;;;;5.80;1.50;;;7.20;99.90;;;;;;4908477;28;20714;-69
2022/02/24 00:57:33;;;;;;;8.43;1.83;;;7.30;99.90;;;;;;4971241;28;20176;-71
2022/02/24 00:59:58;;;;;;;1.33;1.17;;;7.30;99.90;;;;;;4972037;28;20180;-71
2022/02/24 05:32:26;;;;;;;3.60;2.93;;;6.50;99.90;;;;;;5251450;23;20941;-74
2022/02/24 05:34:51;;;;;;;3.57;2.90;;;6.50;99.90;;;;;;4990117;28;20516;-74
2022/02/24 05:37:17;;;;;;;3.37;2.50;;;6.50;99.90;;;;;;4991745;28;20259;-74
2022/02/24 05:39:43;;;;;;;7.03;2.20;;;6.50;99.90;;;;;;4991514;28;20185;-74
2022/02/24 05:42:09;;;;;;;3.43;2.70;;;6.50;99.90;;;;;;4991501;28;20821;-74
2022/02/24 05:44:34;;;;;;;4.47;3.23;;;6.50;99.90;;;;;;4990832;28;20181;-74
2022/02/24 05:47:00;;;;;;;7.77;3.33;;;6.50;99.90;;;;;;4991501;28;20219;-72
2022/02/24 05:49:26;;;;;;;5.00;3.17;;;6.50;99.90;;;;;;4990178;28;20194;-73
2022/02/24 05:51:51;;;;;;;2.87;2.37;;;6.50;99.90;;;;;;4991342;28;20214;-74
2022/02/24 05:54:17;;;;;;;3.93;3.07;;;6.50;99.90;;;;;;4991266;28;20632;-76
2022/02/24 05:56:42;;;;;;;4.27;2.97;;;6.50;99.90;;;;;;4991437;28;20281;-74
2022/02/24 05:59:08;;;;;;;6.43;4.67;;;6.50;99.90;;;;;;4991072;28;20654;-74
2022/02/24 06:01:33;;;;;;;3.73;3.00;;;6.50;99.90;;;;;;4990641;28;20200;-74
2022/02/24 06:03:59;;;;;;;6.13;3.83;;;6.40;99.90;;;;;;4990893;28;20295;-75
2022/02/24 06:06:24;;;;;;;3.83;3.33;;;6.50;99.90;;;;;;4991543;28;20246;-72
2022/02/24 06:08:50;;;;;;;4.47;3.80;;;6.50;99.90;;;;;;4991222;28;20544;-75
2022/02/24 06:11:16;;;;;;;8.00;4.60;;;6.50;99.90;;;;;;4991343;28;20572;-74
2022/02/24 06:13:41;;;;;;;6.40;3.43;;;6.50;99.90;;;;;;4989918;28;20197;-73
2022/02/24 06:16:08;;;;;;;3.33;2.77;;;6.50;99.90;;;;;;4990554;28;20213;-72
2022/02/24 06:18:33;;;;;;;4.23;3.30;;;6.60;99.90;;;;;;4990839;28;20219;-73
2022/02/24 06:21:00;;;;;;;4.70;3.17;;;6.60;99.90;;;;;;4990544;28;20445;-73
2022/02/24 06:23:25;;;;;;;5.60;2.77;;;6.60;99.90;;;;;;4989742;28;20659;-72
2022/02/24 06:25:51;;;;;;;5.40;3.43;;;6.60;99.90;;;;;;4990847;28;20449;-75
2022/02/24 06:28:17;;;;;;;9.13;6.13;;;6.60;99.90;;;;;;4991196;28;20781;-75
2022/02/24 06:30:42;;;;;;;6.60;4.20;;;6.50;99.90;;;;;;4990041;28;20176;-75
2022/02/24 06:33:09;;;;;;;5.37;4.27;;;6.50;99.90;;;;;;4989611;28;20220;-74
2022/02/24 06:35:35;;;;;;;5.80;4.40;;;6.50;99.90;;;;;;4991147;28;20466;-76
2022/02/24 06:38:02;;;;;;;4.27;3.87;;;6.50;99.90;;;;;;4993135;28;20703;-74
2022/02/24 06:40:29;;;;;;;6.70;3.27;;;6.50;99.90;;;;;;4994089;28;20487;-75
2022/02/24 06:42:55;;;;;;;4.80;3.63;;;6.50;99.90;;;;;;4993525;28;20812;-74
2022/02/24 06:45:21;;;;;;;7.10;4.17;;;6.50;99.90;;;;;;4994333;28;20418;-74
2022/02/24 06:47:47;;;;;;;4.60;3.50;;;6.50;99.90;;;;;;4994286;28;20712;-74
2022/02/24 06:50:12;;;;;;;3.70;2.93;;;6.60;99.90;;;;;;4991850;28;20439;-74
2022/02/24 06:52:39;;;;;;;5.60;3.30;;;6.60;99.90;;;;;;4992697;28;20207;-75
2022/02/24 06:55:06;;;;;;;4.80;3.80;;;6.70;99.90;;;;;;4992917;28;20212;-72
2022/02/24 06:57:41;;;;;;;5.70;4.17;;;6.70;99.90;;;;;;4994798;28;20467;-75
2022/02/24 07:00:07;;;;;;;5.70;4.67;;;6.70;99.90;;;;;;4993450;28;20400;-75
2022/02/24 07:02:33;;;;;;;6.80;3.50;;;6.70;99.90;;;;;;4994056;28;20452;-74
2022/02/24 07:04:59;;;;;;;6.50;4.27;;;6.80;99.90;;;;;;4992112;28;20429;-75
2022/02/24 07:07:24;;;;;;;8.73;4.53;;;6.90;99.90;;;;;;4994103;28;20663;-71
2022/02/24 07:09:50;;;;;;;8.17;3.70;;;6.90;99.90;;;;;;4993294;28;20193;-74
2022/02/24 07:12:15;;;;;;;7.43;4.47;;;6.90;99.90;;;;;;4993923;28;20233;-74
2022/02/24 07:14:41;;;;;;;6.93;5.17;;;7.00;99.90;;;;;;4993162;28;20181;-74
2022/02/24 07:17:06;;;;;;;5.27;4.43;;;7.00;99.90;;;;;;4993727;28;20311;-73
2022/02/24 07:19:32;;;;;;;6.03;5.40;;;7.10;99.90;;;;;;4992458;28;20184;-74
2022/02/24 07:21:58;;;;;;;5.77;4.50;;;7.00;99.90;;;;;;4992993;28;20202;-74
2022/02/24 07:24:23;;;;;;;6.60;4.60;;;7.10;99.90;;;;;;4993285;28;20186;-74
2022/02/24 07:26:49;;;;;;;4.43;4.03;;;7.20;99.90;;;;;;4993692;28;20578;-74
2022/02/24 07:29:14;;;;;;;6.10;3.80;;;7.40;99.90;;;;;;4993462;28;20690;-74
2022/02/24 07:31:40;;;;;;;4.40;3.97;;;7.50;99.90;;;;;;4993100;28;20215;-75
2022/02/24 07:34:06;;;;;;;10.83;5.00;;;7.80;99.90;;;;;;4992747;28;20692;-73
2022/02/24 07:36:32;;;;;;;4.63;4.23;;;8.00;99.90;;;;;;4993546;28;20208;-74
2022/02/24 07:38:58;;;;;;;5.47;3.87;;;8.30;99.90;;;;;;4993529;28;20782;-74
2022/02/24 07:41:23;;;;;;;3.80;3.50;;;8.60;99.90;;;;;;4993358;28;20435;-74
2022/02/24 07:43:49;;;;;;;4.33;3.40;;;8.90;99.90;;;;;;4992600;28;20583;-74
2022/02/24 07:46:14;;;;;;;8.10;4.40;;;9.00;99.90;;;;;;4993453;28;20216;-74
2022/02/24 07:48:40;;;;;;;6.30;3.50;;;9.40;99.90;;;;;;4993064;28;20190;-75
2022/02/24 07:51:06;;;;;;;7.10;4.43;;;9.50;99.90;;;;;;4992888;28;20731;-72
2022/02/24 07:53:31;;;;;;;5.97;3.67;;;9.70;99.90;;;;;;4992723;28;20261;-74
2022/02/24 07:55:57;;;;;;;4.17;3.53;;;9.50;99.90;;;;;;4993017;28;20689;-74
2022/02/24 07:58:22;;;;;;;7.03;4.40;;;9.50;99.90;;;;;;4992976;28;20183;-74
2022/02/24 08:00:48;;;;;;;3.93;3.63;;;9.70;99.90;;;;;;4992320;28;20258;-74
2022/02/24 08:03:13;;;;;;;5.20;3.00;;;9.80;99.90;;;;;;4992252;28;20260;-74
2022/02/24 08:05:39;;;;;;;6.93;3.30;;;10.00;99.90;;;;;;4993132;28;20176;-73
2022/02/24 08:08:05;;;;;;;4.13;3.20;;;10.50;99.90;;;;;;4992688;28;20502;-72
2022/02/24 08:10:30;;;;;;;4.50;3.43;;;10.70;99.90;;;;;;4992573;28;20181;-74
2022/02/24 08:12:56;;;;;;;4.13;2.40;;;11.00;99.90;;;;;;4991924;28;20708;-74
2022/02/24 08:15:22;;;;;;;5.57;3.50;;;11.20;99.90;;;;;;4993334;28;20212;-74
2022/02/24 08:17:51;;;;;;;4.83;3.47;;;11.40;99.90;;;;;;4992027;28;20441;-74
2022/02/24 08:20:17;;;;;;;3.50;2.83;;;11.80;99.90;;;;;;4992658;28;20415;-74
2022/02/24 08:22:45;;;;;;;4.17;2.70;;;11.80;99.90;;;;;;4992724;28;20426;-72
2022/02/24 08:25:15;;;;;;;4.83;2.97;;;11.90;99.90;;;;;;4992165;28;20566;-75
2022/02/24 08:27:41;;;;;;;2.90;2.60;;;11.70;99.90;;;;;;4992799;28;20425;-75
2022/02/24 08:30:10;;;;;;;5.87;2.63;;;11.80;99.90;;;;;;4992694;28;20442;-75
2022/02/24 08:32:37;;;;;;;4.13;2.90;;;11.80;99.90;;;;;;4992947;28;20810;-74
2022/02/24 08:35:04;;;;;;;2.80;2.50;;;12.00;99.90;;;;;;4991992;28;20489;-74
2022/02/24 08:37:29;;;;;;;5.70;2.30;;;12.50;99.90;;;;;;4992155;28;20835;-74
2022/02/24 08:39:55;;;;;;;3.53;2.13;;;13.10;99.90;;;;;;4992031;28;20414;-73
2022/02/24 08:42:22;;;;;;;3.67;2.47;;;13.50;99.90;;;;;;4992500;28;20706;-74
2022/02/24 08:44:49;;;;;;;3.03;2.40;;;13.60;99.90;;;;;;4992737;28;20202;-75
2022/02/24 08:47:15;;;;;;;2.53;2.23;;;13.20;99.90;;;;;;4992568;28;20844;-74
2022/02/24 08:49:40;;;;;;;4.23;2.60;;;12.80;99.90;;;;;;4992778;28;20442;-74
2022/02/24 08:52:06;;;;;;;3.70;1.80;;;13.10;99.90;;;;;;4992751;28;20203;-73
2022/02/24 08:54:32;;;;;;;6.00;2.43;;;12.80;99.90;;;;;;4992044;28;20202;-74
2022/02/24 08:56:59;;;;;;;2.63;2.43;;;13.10;99.90;;;;;;4992369;28;20235;-74
2022/02/24 08:59:25;;;;;;;3.43;1.93;;;12.90;99.90;;;;;;4991614;28;20442;-74
2022/02/24 09:01:50;;;;;;;4.67;2.13;;;13.20;99.90;;;;;;4992336;28;20844;-74
2022/02/24 09:04:18;;;;;;;3.40;2.37;;;13.40;99.90;;;;;;4991946;28;20255;-75
2022/02/24 09:06:44;;;;;;;6.80;2.40;;;13.30;99.90;;;;;;4992144;28;20651;-75
2022/02/24 09:09:09;;;;;;;8.33;2.70;;;13.80;99.90;;;;;;4991659;28;20403;-74
2022/02/24 09:11:35;;;;;;;2.70;2.50;;;14.10;99.90;;;;;;4991795;28;20435;-74
2022/02/24 09:14:01;;;;;;;2.90;2.70;;;13.90;99.90;;;;;;4991339;28;20179;-75
2022/02/24 09:16:27;;;;;;;3.67;2.93;;;14.40;99.90;;;;;;4991637;28;20466;-74
2022/02/24 09:18:53;;;;;;;3.00;2.33;;;14.60;99.90;;;;;;4991226;28;20171;-75
2022/02/24 09:21:18;;;;;;;2.10;1.90;;;14.60;99.90;;;;;;4991593;28;20969;-75
2022/02/24 09:23:44;;;;;;;4.73;2.50;;;14.70;99.90;;;;;;4990583;28;20183;-74
2022/02/24 09:26:09;;;;;;;5.43;2.37;;;14.00;99.90;;;;;;4990988;28;20207;-75
2022/02/24 09:28:36;;;;;;;2.50;1.53;;;13.90;99.90;;;;;;4990099;28;20676;-74
2022/02/24 09:31:02;;;;;;;3.20;2.83;;;13.70;99.90;;;;;;4989928;28;20695;-75
2022/02/24 09:33:28;;;;;;;3.33;1.43;;;13.70;99.90;;;;;;4989247;28;20493;-74
2022/02/24 09:35:54;;;;;;;1.20;1.10;;;13.40;99.90;;;;;;4990137;28;21009;-75
2022/02/24 09:38:20;;;;;;;1.80;1.23;;;13.40;99.90;;;;;;4989176;28;20434;-75
2022/02/24 09:40:49;;;;;;;2.23;1.50;;;13.30;99.90;;;;;;4990893;28;20444;-74
2022/02/24 09:43:15;;;;;;;3.83;1.50;;;12.90;99.90;;;;;;4991804;28;20225;-75
2022/02/24 09:45:42;;;;;;;3.90;1.33;;;13.00;99.90;;;;;;4990981;28;20430;-75
2022/02/24 09:48:09;;;;;;;3.00;1.27;;;13.00;99.90;;;;;;4991255;28;20577;-74
2022/02/24 09:50:35;;;;;;;4.90;1.20;;;13.20;99.90;;;;;;4991242;28;20426;-73
2022/02/24 09:53:02;;;;;;;1.93;1.20;;;13.30;99.90;;;;;;4989138;28;20939;-75
2022/02/24 09:55:28;;;;;;;1.77;0.80;;;13.10;99.90;;;;;;4990456;28;20218;-74
2022/02/24 09:57:53;;;;;;;2.63;1.40;;;13.20;99.90;;;;;;4991605;28;20885;-75
2022/02/24 10:00:20;;;;;;;2.10;1.50;;;13.10;99.90;;;;;;4990849;28;20235;-75
2022/02/24 10:02:46;;;;;;;3.67;1.30;;;13.30;99.90;;;;;;4990318;28;20202;-72
2022/02/24 10:05:14;;;;;;;3.10;1.43;;;13.50;99.90;;;;;;4991582;28;20527;-74
2022/02/24 10:07:41;;;;;;;3.23;1.53;;;13.80;99.90;;;;;;4990579;28;20415;-74
2022/02/24 10:10:32;;;;;;;2.07;0.97;;;14.00;99.90;;;;;;4990457;28;20437;-74
2022/02/24 10:13:09;;;;;;;3.80;1.73;;;14.10;99.90;;;;;;4990795;28;20426;-74
2022/02/24 10:15:41;;;;;;;1.60;0.97;;;14.10;99.90;;;;;;4990977;28;20469;-75
2022/02/24 10:18:08;;;;;;;3.87;1.37;;;14.00;99.90;;;;;;4990693;28;20789;-74
2022/02/24 10:20:38;;;;;;;2.07;1.20;;;13.80;99.90;;;;;;4990672;28;20412;-74
2022/02/24 10:23:03;;;;;;;4.67;1.50;;;13.90;99.90;;;;;;4989777;28;20481;-74
2022/02/24 10:25:50;;;;;;;5.50;1.40;;;14.30;99.90;;;;;;4990716;28;20411;-74
2022/02/24 10:28:31;;;;;;;4.67;1.37;;;14.90;99.90;;;;;;4990857;28;20186;-75
2022/02/24 10:30:57;;;;;;;2.67;1.30;;;15.30;99.90;;;;;;4990635;28;20961;-75
2022/02/24 10:33:28;;;;;;;3.00;1.73;;;15.60;99.90;;;;;;4990185;28;20783;-75
2022/02/24 10:35:56;;;;;;;4.30;1.10;;;15.40;99.90;;;;;;4989797;28;20462;-75
2022/02/24 10:38:28;;;;;;;2.00;1.00;;;15.20;99.90;;;;;;4990386;28;20414;-76
2022/02/24 10:40:56;;;;;;;3.03;1.63;;;15.00;99.90;;;;;;4990456;28;20530;-75
2022/02/24 10:43:24;;;;;;;1.97;1.57;;;15.00;99.90;;;;;;4989635;28;20481;-75
2022/02/24 10:46:06;;;;;;;3.33;1.20;;;14.80;99.90;;;;;;4990361;28;20425;-75
2022/02/24 10:48:47;;;;;;;2.13;1.23;;;14.60;99.90;;;;;;4990388;28;21003;-75
2022/02/24 10:51:12;;;;;;;4.00;1.03;;;14.40;99.90;;;;;;4989875;28;20433;-75
2022/02/24 10:53:39;;;;;;;3.57;1.47;;;14.40;99.90;;;;;;4989768;28;20484;-76
2022/02/24 10:56:11;;;;;;;1.50;1.00;;;14.60;99.90;;;;;;4990238;28;20221;-72
2022/02/24 10:58:41;;;;;;;1.87;0.97;;;14.80;99.90;;;;;;4990479;28;20418;-75
2022/02/24 11:01:15;;;;;;;3.00;1.43;;;15.00;99.90;;;;;;4989535;28;20885;-75
2022/02/24 11:03:43;;;;;;;0.93;0.80;;;15.20;99.90;;;;;;4990072;28;20790;-75
2022/02/24 11:06:10;;;;;;;1.57;1.20;;;15.40;99.90;;;;;;4990104;28;20418;-76
2022/02/24 11:08:36;;;;;;;4.07;1.30;;;15.70;99.90;;;;;;4990291;28;20423;-75
2022/02/24 11:11:04;;;;;;;1.50;1.20;;;15.50;99.90;;;;;;4989993;28;20438;-75
2022/02/24 11:13:30;;;;;;;3.53;1.70;;;15.30;99.90;;;;;;4989206;28;20516;-74
2022/02/24 11:16:00;;;;;;;3.67;1.83;;;15.40;99.90;;;;;;4990117;28;20553;-75
2022/02/24 11:18:26;;;;;;;1.30;1.03;;;15.50;99.90;;;;;;4990235;28;21108;-73
2022/02/24 11:20:52;;;;;;;1.17;1.03;;;15.50;99.90;;;;;;4989671;28;20410;-75
2022/02/24 11:23:18;;;;;;;1.47;1.03;;;15.80;99.90;;;;;;4993430;28;20414;-75
2022/02/24 11:26:06;;;;;;;1.13;1.03;;;16.00;99.90;;;;;;4993660;28;20420;-73
2022/02/24 11:28:40;;;;;;;1.47;1.10;;;16.20;99.90;;;;;;4993283;28;20187;-75
2022/02/24 11:31:18;;;;;;;3.30;1.40;;;15.90;99.90;;;;;;4992979;28;20453;-73
2022/02/24 11:33:44;;;;;;;5.23;1.27;;;15.80;99.90;;;;;;4993084;28;20422;-75
2022/02/24 11:36:12;;;;;;;2.90;1.20;;;15.80;99.90;;;;;;4992929;28;20477;-75
2022/02/24 11:38:40;;;;;;;3.67;1.10;;;16.00;99.90;;;;;;4993556;28;20172;-76
2022/02/24 11:41:08;;;;;;;2.17;1.30;;;15.90;99.90;;;;;;4992950;28;20453;-75
2022/02/24 11:43:35;;;;;;;3.40;1.00;;;15.80;99.90;;;;;;4993004;28;20438;-76
2022/02/24 11:46:05;;;;;;;1.73;1.37;;;15.80;99.90;;;;;;4993041;28;20596;-75
2022/02/24 11:48:34;;;;;;;0.90;0.80;;;15.50;99.90;;;;;;4993199;28;20406;-76
2022/02/24 11:51:15;;;;;;;2.80;1.07;;;15.40;99.90;;;;;;4992149;28;20443;-76
2022/02/24 11:53:43;;;;;;;1.80;1.20;;;15.50;99.90;;;;;;4992977;28;20446;-75
2022/02/24 11:56:17;;;;;;;2.27;1.30;;;15.40;99.90;;;;;;4993016;28;20820;-75
2022/02/24 11:58:50;;;;;;;2.90;0.93;;;15.40;99.90;;;;;;4991708;28;20422;-75
2022/02/24 12:01:26;;;;;;;1.43;0.90;;;15.20;99.90;;;;;;4992625;28;20442;-74
2022/02/24 12:03:53;;;;;;;1.67;0.80;;;15.00;99.90;;;;;;4992272;28;20843;-75
2022/02/24 12:06:34;;;;;;;0.83;0.83;;;15.00;99.90;;;;;;4993112;28;20450;-75
2022/02/24 12:09:22;;;;;;;3.47;1.10;;;14.80;99.90;;;;;;4992612;28;20442;-73
2022/02/24 12:11:57;;;;;;;2.37;1.13;;;15.00;99.90;;;;;;4992123;28;20430;-75
2022/02/24 12:14:22;;;;;;;1.20;0.93;;;15.00;99.90;;;;;;4991784;28;20504;-75
2022/02/24 12:17:03;;;;;;;3.07;1.10;;;15.10;99.90;;;;;;4992874;28;20931;-75
2022/02/24 12:19:45;;;;;;;3.50;1.00;;;15.10;99.90;;;;;;4992206;28;20325;-75
2022/02/24 12:22:32;;;;;;;2.93;0.97;;;15.10;99.90;;;;;;4992281;28;20438;-75
2022/02/24 12:25:06;;;;;;;1.40;1.00;;;15.20;99.90;;;;;;4992191;28;20416;-75
2022/02/24 12:27:42;;;;;;;1.93;0.90;;;15.20;99.90;;;;;;4997007;28;20746;-76
2022/02/24 12:30:11;;;;;;;1.27;1.17;;;15.20;99.90;;;;;;4992500;28;20465;-75
2022/02/24 12:33:06;;;;;;;1.10;0.80;;;15.10;99.90;;;;;;4992113;28;20457;-76
2022/02/24 12:35:38;;;;;;;1.57;1.20;;;15.20;99.90;;;;;;4987901;28;20466;-76
2022/02/24 12:38:05;;;;;;;1.53;0.90;;;15.00;99.90;;;;;;4992573;28;20414;-75
2022/02/24 12:40:34;;;;;;;1.73;0.80;;;14.90;99.90;;;;;;4992182;28;20421;-76
2022/02/24 12:43:03;;;;;;;1.47;0.80;;;14.80;99.90;;;;;;4992016;28;20414;-75
2022/02/24 12:45:30;;;;;;;2.03;0.90;;;14.70;99.90;;;;;;4992147;28;20418;-76
2022/02/24 12:47:57;;;;;;;2.10;1.13;;;14.70;99.90;;;;;;4991039;28;20935;-76
2022/02/24 12:50:25;;;;;;;4.63;1.00;;;14.60;99.90;;;;;;4991252;28;20426;-75
2022/02/24 12:52:51;;;;;;;4.63;1.17;;;14.40;99.90;;;;;;4992261;28;20915;-76
2022/02/24 12:55:18;;;;;;;5.63;0.80;;;14.30;99.90;;;;;;4992030;28;20557;-76
2022/02/24 12:57:45;;;;;;;3.43;0.80;;;14.30;99.90;;;;;;4991680;28;20179;-73
2022/02/24 13:00:11;;;;;;;2.13;0.97;;;14.20;99.90;;;;;;4991926;28;20422;-75
2022/02/24 13:02:39;;;;;;;3.40;1.10;;;14.20;99.90;;;;;;4991956;28;20518;-75
2022/02/24 13:05:05;;;;;;;1.80;0.80;;;14.40;99.90;;;;;;4991246;28;20425;-74
2022/02/24 13:10:15;;;;;;;1.73;0.90;;;14.40;99.90;;;;;;4990981;28;20997;-76
2022/02/24 13:12:41;;;;;;;5.23;1.23;;;14.30;99.90;;;;;;4991871;28;20505;-76
2022/02/24 13:15:08;;;;;;;1.03;0.93;;;14.20;99.90;;;;;;4990962;28;20596;-75
2022/02/24 13:17:34;;;;;;;2.30;1.20;;;14.10;99.90;;;;;;4991633;28;20429;-75
2022/02/24 13:19:59;;;;;;;4.73;0.90;;;13.90;99.90;;;;;;4991518;28;20414;-76
2022/02/24 13:22:25;;;;;;;1.27;0.80;;;13.70;99.90;;;;;;4991310;28;20195;-73
2022/02/24 13:24:51;;;;;;;4.57;1.40;;;13.70;99.90;;;;;;4990653;28;20188;-76
2022/02/24 13:27:20;;;;;;;2.10;0.80;;;13.70;99.90;;;;;;4991771;28;20822;-76
2022/02/24 13:29:50;;;;;;;1.67;1.10;;;13.60;99.90;;;;;;4991211;28;20210;-73
2022/02/24 13:32:21;;;;;;;1.80;0.87;;;13.60;99.90;;;;;;4991107;28;20998;-75
2022/02/24 13:34:52;;;;;;;1.57;1.30;;;13.60;99.90;;;;;;4990638;28;20972;-75
2022/02/24 13:37:18;;;;;;;1.10;0.90;;;13.60;99.90;;;;;;4990775;28;20793;-76
2022/02/24 13:39:48;;;;;;;1.20;0.83;;;13.60;99.90;;;;;;4991144;28;20428;-73
2022/02/24 13:42:19;;;;;;;2.10;0.80;;;13.50;99.90;;;;;;4991152;28;20203;-75
2022/02/24 13:44:47;;;;;;;3.70;1.17;;;13.60;99.90;;;;;;4990379;28;20449;-74
2022/02/24 13:47:15;;;;;;;3.33;0.90;;;13.50;99.90;;;;;;4990875;28;20439;-76
2022/02/24 13:49:46;;;;;;;3.30;1.30;;;13.50;99.90;;;;;;4991016;28;20420;-76
2022/02/24 13:52:33;;;;;;;1.37;0.93;;;13.30;99.90;;;;;;4990458;28;20434;-75
2022/02/24 13:55:08;;;;;;;2.70;1.23;;;13.20;99.90;;;;;;4990671;28;20446;-76
2022/02/24 13:57:48;;;;;;;2.13;0.80;;;13.20;99.90;;;;;;4990014;28;20446;-75
2022/02/24 14:00:14;;;;;;;2.23;0.77;;;13.10;99.90;;;;;;4989981;28;20435;-76
2022/02/24 14:02:41;;;;;;;1.10;0.83;;;13.00;99.90;;;;;;4990937;28;20525;-76
2022/02/24 14:05:14;;;;;;;1.20;0.90;;;13.00;99.90;;;;;;4990103;28;20184;-75
2022/02/24 14:07:59;;;;;;;3.10;1.00;;;13.00;99.90;;;;;;4991098;28;20422;-75
2022/02/24 14:10:25;;;;;;;2.43;1.00;;;12.90;99.90;;;;;;4990236;28;20826;-74
2022/02/24 14:12:51;;;;;;;3.57;0.90;;;12.90;99.90;;;;;;4990516;28;20485;-75
2022/02/24 14:15:17;;;;;;;1.70;0.93;;;12.90;99.90;;;;;;4990474;28;20473;-75
2022/02/24 14:17:43;;;;;;;1.43;0.90;;;12.80;99.90;;;;;;4990594;28;20182;-74
2022/02/24 14:20:16;;;;;;;2.93;0.73;;;12.80;99.90;;;;;;4990124;28;20498;-74
2022/02/24 14:22:42;;;;;;;1.53;0.87;;;12.80;99.90;;;;;;4991218;28;20492;-74
2022/02/24 14:25:08;;;;;;;3.70;1.90;;;12.80;99.90;;;;;;4990350;28;20425;-74
2022/02/24 14:27:35;;;;;;;2.20;1.20;;;13.00;99.90;;;;;;4990846;28;20501;-74
2022/02/24 14:30:01;;;;;;;1.63;0.90;;;13.10;99.90;;;;;;4989909;28;20423;-75
2022/02/24 14:32:26;;;;;;;4.37;1.43;;;13.00;99.90;;;;;;4990116;28;20809;-74
2022/02/24 14:34:53;;;;;;;1.33;0.90;;;13.00;99.90;;;;;;4990111;28;20183;-75
2022/02/24 14:37:19;;;;;;;3.57;1.20;;;13.00;99.90;;;;;;4990479;28;20175;-74
2022/02/24 14:39:45;;;;;;;5.47;1.07;;;13.00;99.90;;;;;;4989878;28;20476;-72
2022/02/24 14:42:11;;;;;;;3.50;0.70;;;12.90;99.90;;;;;;4990627;28;20195;-75
2022/02/24 14:44:36;;;;;;;1.43;0.80;;;12.80;99.90;;;;;;4990036;28;20472;-75
2022/02/24 14:47:02;;;;;;;3.00;0.90;;;12.70;99.90;;;;;;4990285;28;20191;-76
2022/02/24 14:49:27;;;;;;;1.30;0.83;;;12.70;99.90;;;;;;4990405;28;20319;-75
2022/02/24 14:51:53;;;;;;;3.10;1.30;;;12.70;99.90;;;;;;4990653;28;20209;-75
2022/02/24 14:54:19;;;;;;;6.20;0.90;;;12.60;99.90;;;;;;4990547;28;20258;-75
2022/02/24 14:56:44;;;;;;;4.40;1.47;;;12.50;99.90;;;;;;4990891;28;20222;-72
2022/02/24 14:59:10;;;;;;;3.40;1.10;;;12.50;99.90;;;;;;4993985;28;20177;-75
2022/02/24 15:01:35;;;;;;;2.17;1.30;;;12.50;99.90;;;;;;4994529;28;20229;-76
2022/02/24 15:04:01;;;;;;;3.97;1.20;;;12.60;99.90;;;;;;4993739;28;20197;-75
2022/02/24 15:06:29;;;;;;;2.97;1.33;;;12.60;99.90;;;;;;4994038;28;20187;-75
2022/02/24 15:08:56;;;;;;;3.70;1.33;;;12.60;99.90;;;;;;4994661;28;20183;-74
2022/02/24 15:11:22;;;;;;;1.67;1.10;;;12.60;99.90;;;;;;4992781;28;20493;-74
2022/02/24 15:13:47;;;;;;;1.87;0.97;;;12.60;99.90;;;;;;4993559;28;20507;-74
2022/02/24 15:16:13;;;;;;;3.40;1.53;;;12.60;99.90;;;;;;4993691;28;20245;-74
2022/02/24 15:18:39;;;;;;;3.47;2.07;;;12.60;99.90;;;;;;4993563;28;20175;-75
2022/02/24 15:21:04;;;;;;;5.50;1.80;;;12.50;99.90;;;;;;4993562;28;20775;-73
2022/02/24 15:23:30;;;;;;;0.90;0.80;;;12.60;99.90;;;;;;4993256;28;20203;-75
2022/02/24 15:25:55;;;;;;;1.70;1.10;;;12.60;99.90;;;;;;4993695;28;20254;-75
2022/02/24 15:28:21;;;;;;;3.57;1.33;;;12.60;99.90;;;;;;4993784;28;20262;-75
2022/02/24 15:30:47;;;;;;;3.10;1.10;;;12.50;99.90;;;;;;4993125;28;20671;-73
2022/02/24 15:33:13;;;;;;;2.70;1.20;;;12.50;99.90;;;;;;4971226;28;20229;-74
2022/02/24 15:35:38;;;;;;;3.23;1.33;;;12.50;99.90;;;;;;4968538;28;20511;-75
2022/02/24 15:38:04;;;;;;;3.43;1.47;;;12.40;99.90;;;;;;4972752;28;20197;-73
2022/02/24 15:40:29;;;;;;;1.73;1.40;;;12.40;99.90;;;;;;4972444;28;20180;-75
2022/02/24 15:42:55;;;;;;;1.47;0.90;;;12.40;99.90;;;;;;4972761;28;20270;-74
2022/02/24 15:45:21;;;;;;;5.10;2.40;;;12.40;99.90;;;;;;4973841;28;20176;-75
2022/02/24 15:47:46;;;;;;;1.73;1.63;;;12.40;99.90;;;;;;4973914;28;20191;-75
2022/02/24 15:50:14;;;;;;;2.47;1.20;;;12.40;99.90;;;;;;4973211;28;20184;-75
2022/02/24 15:52:41;;;;;;;2.40;0.97;;;12.40;99.90;;;;;;4973844;28;20207;-75
2022/02/24 15:55:08;;;;;;;1.87;0.90;;;12.40;99.90;;;;;;4973038;28;20419;-74
2022/02/24 15:57:34;;;;;;;1.33;1.07;;;12.30;99.90;;;;;;4973492;28;20426;-75
2022/02/24 16:00:01;;;;;;;1.80;0.90;;;12.40;99.90;;;;;;4973553;28;20427;-74
2022/02/24 16:02:26;;;;;;;4.83;1.20;;;12.30;99.90;;;;;;4973486;28;20211;-74
2022/02/24 16:04:52;;;;;;;3.13;1.63;;;12.30;99.90;;;;;;4973038;28;20986;-75
2022/02/24 16:07:20;;;;;;;3.63;1.30;;;12.30;99.90;;;;;;4973445;28;20175;-75
2022/02/24 16:09:46;;;;;;;3.33;1.00;;;12.40;99.90;;;;;;4975324;28;20271;-73
2022/02/24 16:12:12;;;;;;;1.43;1.30;;;12.30;99.90;;;;;;4964816;28;20459;-75
2022/02/24 16:14:38;;;;;;;5.23;1.40;;;12.30;99.90;;;;;;4969818;28;20454;-75
2022/02/24 16:17:04;;;;;;;1.97;0.70;;;12.30;99.90;;;;;;4963039;28;20223;-72
2022/02/24 16:19:30;;;;;;;3.30;0.93;;;12.30;99.90;;;;;;4961772;28;21054;-75
2022/02/24 16:21:56;;;;;;;3.87;1.13;;;12.20;99.90;;;;;;4968816;28;20463;-75
2022/02/24 16:24:21;;;;;;;1.00;0.90;;;12.20;99.90;;;;;;4962625;28;20180;-74
2022/02/24 16:26:50;;;;;;;1.57;1.10;;;12.10;99.90;;;;;;4971686;28;20450;-75
2022/02/24 16:29:17;;;;;;;1.70;0.97;;;12.20;99.90;;;;;;4968812;28;20677;-75
2022/02/24 16:31:44;;;;;;;1.17;1.00;;;12.10;99.90;;;;;;4972958;28;20826;-74
2022/02/24 16:34:10;;;;;;;6.50;1.57;;;12.10;99.90;;;;;;4971925;28;20509;-75
2022/02/24 16:36:35;;;;;;;2.23;1.10;;;12.10;99.90;;;;;;4972878;28;20573;-74
2022/02/24 16:39:01;;;;;;;1.83;1.20;;;12.00;99.90;;;;;;4972818;28;20176;-74
2022/02/24 16:41:27;;;;;;;1.90;1.30;;;12.00;99.90;;;;;;4972230;28;20215;-75
2022/02/24 16:43:54;;;;;;;1.17;0.90;;;11.90;99.90;;;;;;4972452;28;20178;-75
2022/02/24 16:46:21;;;;;;;2.70;1.00;;;11.80;99.90;;;;;;4972333;28;20395;-75
2022/02/24 16:48:48;;;;;;;2.80;1.97;;;11.80;99.90;;;;;;4972788;28;20505;-76
2022/02/24 16:51:13;;;;;;;2.23;1.30;;;11.70;99.90;;;;;;4972618;28;20435;-75
2022/02/24 16:53:40;;;;;;;2.13;1.77;;;11.70;99.90;;;;;;4972196;28;20468;-74
2022/02/24 16:56:05;;;;;;;3.60;1.53;;;11.60;99.90;;;;;;4971688;28;20215;-75
2022/02/24 16:58:31;;;;;;;1.53;0.97;;;11.60;99.90;;;;;;4972667;28;20503;-75
2022/02/24 17:00:57;;;;;;;2.30;1.00;;;11.50;99.90;;;;;;4970946;28;20469;-75
2022/02/24 17:03:25;;;;;;;1.43;1.30;;;11.50;99.90;;;;;;4969296;28;20560;-76
2022/02/24 17:05:51;;;;;;;0.93;0.83;;;11.40;99.90;;;;;;4970432;28;20187;-75
2022/02/24 17:08:17;;;;;;;4.50;1.23;;;11.40;99.90;;;;;;4968036;28;20523;-76
2022/02/24 17:10:43;;;;;;;3.47;0.97;;;11.30;99.90;;;;;;4963253;28;20454;-75
2022/02/24 17:13:10;;;;;;;1.53;0.90;;;11.30;99.90;;;;;;4970825;28;20690;-74
2022/02/24 17:15:36;;;;;;;2.93;1.13;;;11.20;99.90;;;;;;4970875;28;20966;-76
2022/02/24 17:18:02;;;;;;;2.20;1.10;;;11.20;99.90;;;;;;4969386;28;20439;-76
2022/02/24 17:20:28;;;;;;;3.70;1.00;;;11.20;99.90;;;;;;4963733;28;20190;-76
2022/02/24 17:22:55;;;;;;;1.33;1.10;;;11.30;99.90;;;;;;4964713;28;20454;-77
2022/02/24 17:25:22;;;;;;;2.30;1.30;;;11.40;99.90;;;;;;4966568;28;20467;-75